West Willington, Connecticut
Current Conditions -  °F | °C
As of 1:22 AM on Thursday 27 Nov 2014 (Local Time) from KIJD Reporting Station
Overcast Overcast  
Wind Chill: 25°   Ceiling: 4900
Heat Index: 34°   Visibility: 9mi
Dew Point: 30°   Wind: 12mph
Humidity: 85%   Direction: 330°NNW
Pressure: 29.76"   Gusts: 20mph
Location:  41.8841°N, 72.2663°W
Report Text: KIJD 270622Z AUTO 33010G17KT 9SM FEW009 SCT015 OVC049 01/M01 A2976 RMK AO2 SNE03 P0000 T00111011
Loading
Personal Weather Stations






























Interactive Weather Map New forecast layout! Learn more

10-Day Weather Forecast

Advertisements
Track Severe Weather on mobile